首页
METAR-TAF:

METAR-TAF

机场 :

布拉提斯拉瓦機場

布拉迪斯拉发, 斯洛伐克

纬度: 48-12N, 经度: 017-12E, 海拔: 133米

当前天气观测

该预报发布于31分钟前的08:30 UTC
风速9节,风向西转西北,在西北转西北之间变化
温度 31°C
湿度 55%
气压 1018 hPa
能见度10公里或以上
1500米以下无云,无积雨云

METAR: LZIB 270830Z 30009KT 270V330 CAVOK 31/21 Q1018 NOSIG

时间: 11:01 (09:01 UTC)

预报

该预报发布于4小时和1分钟前的05:00 UTC
预报有效从27日的 06点(UTC)到 28日的 06点(UTC)
风速3节,风向
能见度10公里或以上
1500米以下无云,无积雨云
成为
从 27日的 07点(UTC)到 27日的 09点(UTC)
风速10节,风向西北
短暂存在
从 27日的 09点(UTC)到 27日的 14点(UTC)
能见度10公里或以上
散云层高于4000英尺
散云层高于10000英尺
几率 40% :
短暂存在
从 27日的 11点(UTC)到 27日的 19点(UTC)
风速15节,风向北转西北,有时为25节阵风
成为
从 27日的 19点(UTC)到 27日的 21点(UTC)
风速7节,风向

TAF: LZIB 270500Z 2706/2806 35003KT CAVOK BECMG 2707/2709 32010KT TEMPO 2709/2714 9999 SCT040 SCT100 PROB40 TEMPO 2711/2719 33015G25KT BECMG 2719/2721 36007KT

超过4000个机场的气象观测和天气预报(METAR&TAF报告)。

可查询的气象台以黄色和红色小点在地图上表示。

将鼠标移到小点上方,可查看气象台名称。

然后点击查看天气观测和预报。

如需切换地图:点击带黑十字的绿色按钮放大地图;点击带横线的绿色按钮缩小地图;或者点击绿色箭头查看邻近地区的地图。


METAR-TAF: